Time;durP1;ratioP1;P1;durP2;ratioP2;P2;SDS_P1;SDS_P2;PMS_P1;PMS_P2;Temp;Humidity;BMP_temperature;BMP_pressure;BME280_temperature;BME280_humidity;BME280_pressure;Samples;Min_cycle;Max_cycle;Signal;HPM_P1;HPM_P2
2023/09/28 00:01:58;;;;;;;10.88;6.30;;;;;;;;;;5014101;28;20531;-75
2023/09/28 00:04:23;;;;;;;10.20;5.88;;;;;;;;;;5014039;28;20384;-75
2023/09/28 00:06:49;;;;;;;7.00;5.30;;;;;;;;;;5013692;28;20037;-75
2023/09/28 00:09:16;;;;;;;12.67;5.77;;;;;;;;;;5013888;28;20756;-75
2023/09/28 00:11:41;;;;;;;9.70;5.80;;;;;;;;;;5013654;28;20263;-75
2023/09/28 00:14:07;;;;;;;8.18;5.50;;;;;;;;;;5012456;28;20427;-75
2023/09/28 00:16:32;;;;;;;10.85;6.25;;;;;;;;;;5013624;28;20018;-75
2023/09/28 00:18:57;;;;;;;9.38;5.60;;;;;;;;;;5012392;28;20022;-75
2023/09/28 00:21:22;;;;;;;11.65;6.50;;;;;;;;;;5012298;28;20579;-75
2023/09/28 00:23:49;;;;;;;9.63;5.85;;;;;;;;;;5011964;28;20022;-75
2023/09/28 00:26:16;;;;;;;11.27;5.53;;;;;;;;;;5013508;28;20026;-75
2023/09/28 00:28:42;;;;;;;10.07;5.78;;;;;;;;;;5013310;28;20033;-75
2023/09/28 00:31:08;;;;;;;12.98;5.65;;;;;;;;;;5013551;28;20029;-76
2023/09/28 00:33:33;;;;;;;11.77;6.00;;;;;;;;;;5013514;28;20025;-75
2023/09/28 00:35:58;;;;;;;11.05;5.78;;;;;;;;;;5013406;28;20033;-76
2023/09/28 00:38:23;;;;;;;10.90;5.50;;;;;;;;;;5013395;28;20503;-76
2023/09/28 00:40:49;;;;;;;12.00;5.80;;;;;;;;;;5013354;28;20362;-76
2023/09/28 00:43:14;;;;;;;8.37;5.50;;;;;;;;;;5013398;28;20317;-76
2023/09/28 00:45:41;;;;;;;7.25;5.53;;;;;;;;;;5013266;28;20341;-76
2023/09/28 00:48:10;;;;;;;9.45;6.20;;;;;;;;;;5013349;28;20029;-76
2023/09/28 00:50:35;;;;;;;10.80;6.15;;;;;;;;;;5013453;28;20033;-76
2023/09/28 00:53:04;;;;;;;8.32;5.97;;;;;;;;;;5013300;28;20017;-76
2023/09/28 00:55:30;;;;;;;7.10;5.15;;;;;;;;;;5012080;28;20022;-76
2023/09/28 00:58:01;;;;;;;8.60;5.68;;;;;;;;;;5013277;28;20034;-76
2023/09/28 01:00:31;;;;;;;8.88;6.18;;;;;;;;;;5013567;28;20068;-76
2023/09/28 01:02:59;;;;;;;12.07;5.72;;;;;;;;;;5011972;28;20022;-76
2023/09/28 01:05:34;;;;;;;9.65;5.78;;;;;;;;;;5013115;28;20029;-76
2023/09/28 01:08:11;;;;;;;11.00;6.07;;;;;;;;;;5011811;28;20026;-76
2023/09/28 01:10:38;;;;;;;8.88;6.30;;;;;;;;;;5013115;28;20439;-76
2023/09/28 01:13:11;;;;;;;8.18;5.80;;;;;;;;;;5013191;28;20377;-77
2023/09/28 01:15:51;;;;;;;10.60;6.28;;;;;;;;;;5013024;28;20476;-76
2023/09/28 01:18:20;;;;;;;8.13;6.35;;;;;;;;;;5011716;28;20029;-76
2023/09/28 01:20:47;;;;;;;9.30;5.70;;;;;;;;;;5012013;28;20423;-76
2023/09/28 01:23:13;;;;;;;11.52;5.78;;;;;;;;;;5011905;28;20030;-76
2023/09/28 01:25:39;;;;;;;14.85;6.20;;;;;;;;;;5011842;28;20499;-76
2023/09/28 01:28:06;;;;;;;9.43;6.00;;;;;;;;;;5010767;28;20026;-76
2023/09/28 01:30:31;;;;;;;9.02;5.78;;;;;;;;;;5012714;28;20029;-76
2023/09/28 01:32:57;;;;;;;14.73;5.82;;;;;;;;;;5013161;28;20391;-76
2023/09/28 01:35:22;;;;;;;16.20;5.97;;;;;;;;;;5014121;28;20022;-76
2023/09/28 01:37:56;;;;;;;9.70;5.95;;;;;;;;;;5015721;28;20026;-76
2023/09/28 01:40:21;;;;;;;10.40;5.85;;;;;;;;;;5016429;28;20038;-76
2023/09/28 01:42:47;;;;;;;9.23;5.95;;;;;;;;;;5016432;28;20022;-76
2023/09/28 01:45:12;;;;;;;8.52;5.75;;;;;;;;;;5016323;28;20033;-76
2023/09/28 01:47:38;;;;;;;8.82;5.80;;;;;;;;;;5016389;28;20477;-76
2023/09/28 01:50:04;;;;;;;8.30;5.57;;;;;;;;;;5015241;28;20038;-76
2023/09/28 01:52:29;;;;;;;9.68;5.80;;;;;;;;;;5015025;28;20029;-76
2023/09/28 01:54:54;;;;;;;15.45;6.35;;;;;;;;;;5016356;28;20022;-76
2023/09/28 01:57:20;;;;;;;9.30;5.65;;;;;;;;;;5016372;28;20071;-76
2023/09/28 01:59:45;;;;;;;9.10;5.60;;;;;;;;;;5016204;28;20021;-76
2023/09/28 02:02:11;;;;;;;9.18;5.70;;;;;;;;;;5014955;28;20124;-76
2023/09/28 02:04:37;;;;;;;8.40;5.80;;;;;;;;;;5016176;28;20026;-76
2023/09/28 02:07:02;;;;;;;10.15;6.13;;;;;;;;;;5014931;28;20282;-76
2023/09/28 02:09:29;;;;;;;9.40;5.93;;;;;;;;;;5016079;28;20025;-76
2023/09/28 02:11:54;;;;;;;14.93;6.22;;;;;;;;;;5016208;28;20084;-75
2023/09/28 02:14:19;;;;;;;13.35;6.10;;;;;;;;;;5015895;28;20017;-76
2023/09/28 02:16:45;;;;;;;9.35;5.80;;;;;;;;;;5016158;28;20544;-75
2023/09/28 02:19:10;;;;;;;10.03;5.87;;;;;;;;;;5015736;28;20030;-75
2023/09/28 02:21:36;;;;;;;11.43;6.15;;;;;;;;;;5014578;28;20600;-75
2023/09/28 02:24:01;;;;;;;9.30;6.25;;;;;;;;;;5015743;28;20485;-75
2023/09/28 02:26:27;;;;;;;13.43;6.50;;;;;;;;;;5015741;28;20022;-76
2023/09/28 02:28:52;;;;;;;14.07;6.13;;;;;;;;;;5015548;28;20033;-75
2023/09/28 02:31:17;;;;;;;11.07;6.05;;;;;;;;;;5015986;28;20129;-75
2023/09/28 02:33:43;;;;;;;11.50;6.63;;;;;;;;;;5015697;28;20084;-76
2023/09/28 02:36:08;;;;;;;8.40;6.10;;;;;;;;;;5014443;28;20264;-75
2023/09/28 02:38:34;;;;;;;11.52;6.03;;;;;;;;;;5015620;28;20022;-75
2023/09/28 02:40:59;;;;;;;10.90;6.25;;;;;;;;;;5015843;28;20033;-76
2023/09/28 02:43:24;;;;;;;9.75;6.20;;;;;;;;;;5014261;28;20408;-76
2023/09/28 02:45:50;;;;;;;10.35;6.30;;;;;;;;;;5015238;28;20465;-76
2023/09/28 02:48:16;;;;;;;13.82;6.55;;;;;;;;;;5015306;28;20037;-76
2023/09/28 02:50:41;;;;;;;14.50;7.10;;;;;;;;;;5015345;28;20369;-76
2023/09/28 02:53:07;;;;;;;12.32;6.68;;;;;;;;;;5015255;28;20080;-75
2023/09/28 02:55:32;;;;;;;9.27;5.85;;;;;;;;;;5015219;28;20022;-76
2023/09/28 02:57:58;;;;;;;11.23;6.25;;;;;;;;;;5015086;28;20477;-75
2023/09/28 03:02:51;;;;;;;12.90;6.20;;;;;;;;;;5015454;28;20068;-75
2023/09/28 03:05:17;;;;;;;9.23;6.10;;;;;;;;;;5014902;28;20026;-76
2023/09/28 03:07:42;;;;;;;8.57;6.05;;;;;;;;;;5015052;28;20037;-76
2023/09/28 03:10:10;;;;;;;11.73;6.47;;;;;;;;;;5015097;28;20061;-76
2023/09/28 03:12:35;;;;;;;26.63;6.25;;;;;;;;;;5014863;28;20022;-75
2023/09/28 03:15:04;;;;;;;11.93;6.20;;;;;;;;;;5014817;28;20029;-76
2023/09/28 03:17:29;;;;;;;12.65;5.75;;;;;;;;;;5015042;28;20032;-76
2023/09/28 03:19:54;;;;;;;10.30;5.60;;;;;;;;;;5014538;28;20034;-76
2023/09/28 03:22:20;;;;;;;12.10;6.10;;;;;;;;;;5014956;28;20460;-76
2023/09/28 03:24:46;;;;;;;10.38;6.05;;;;;;;;;;5014843;28;20681;-76
2023/09/28 03:27:12;;;;;;;10.50;5.93;;;;;;;;;;5014724;28;20026;-76
2023/09/28 03:29:37;;;;;;;8.70;5.75;;;;;;;;;;5014344;28;20038;-76
2023/09/28 03:32:02;;;;;;;11.15;5.97;;;;;;;;;;5013145;28;20044;-76
2023/09/28 03:34:27;;;;;;;10.45;5.88;;;;;;;;;;5014710;28;20084;-76
2023/09/28 03:36:53;;;;;;;11.05;5.95;;;;;;;;;;5013125;28;20033;-76
2023/09/28 03:39:18;;;;;;;12.07;5.87;;;;;;;;;;5014265;28;20021;-76
2023/09/28 03:41:44;;;;;;;7.97;5.65;;;;;;;;;;5014286;28;20634;-76
2023/09/28 03:44:09;;;;;;;7.10;5.63;;;;;;;;;;5014537;28;20076;-75
2023/09/28 03:46:34;;;;;;;9.48;5.90;;;;;;;;;;5014049;28;20499;-75
2023/09/28 03:49:00;;;;;;;11.60;5.40;;;;;;;;;;5014044;28;20022;-75
2023/09/28 03:51:25;;;;;;;9.55;5.68;;;;;;;;;;5014084;28;20021;-76
2023/09/28 03:53:50;;;;;;;15.57;6.00;;;;;;;;;;5014085;28;20037;-75
2023/09/28 03:56:15;;;;;;;12.40;6.07;;;;;;;;;;5014003;28;20251;-75
2023/09/28 03:58:41;;;;;;;9.77;5.63;;;;;;;;;;5013516;28;20270;-75
2023/09/28 04:01:07;;;;;;;9.73;5.60;;;;;;;;;;5014052;28;20033;-75
2023/09/28 04:03:36;;;;;;;11.45;6.07;;;;;;;;;;5013992;28;20068;-74
2023/09/28 04:06:01;;;;;;;13.50;6.38;;;;;;;;;;5012781;28;20432;-76
2023/09/28 04:08:27;;;;;;;11.50;5.57;;;;;;;;;;5014154;28;20040;-76
2023/09/28 04:10:52;;;;;;;13.18;5.53;;;;;;;;;;5013998;28;20101;-76
2023/09/28 04:13:17;;;;;;;9.87;5.73;;;;;;;;;;5014117;28;20026;-76
2023/09/28 04:15:43;;;;;;;12.65;6.28;;;;;;;;;;5012680;28;20251;-76
2023/09/28 04:18:08;;;;;;;11.60;5.65;;;;;;;;;;5013932;28;20049;-77
2023/09/28 04:20:35;;;;;;;10.18;6.13;;;;;;;;;;5013981;28;20472;-76
2023/09/28 04:23:05;;;;;;;13.10;5.85;;;;;;;;;;5012516;28;20029;-76
2023/09/28 04:25:31;;;;;;;10.10;5.45;;;;;;;;;;5013645;28;20034;-75
2023/09/28 04:27:56;;;;;;;8.43;5.63;;;;;;;;;;5014199;28;20018;-77
2023/09/28 04:30:21;;;;;;;9.07;5.93;;;;;;;;;;5012605;28;20041;-76
2023/09/28 04:32:46;;;;;;;14.13;6.28;;;;;;;;;;5013903;28;20274;-75
2023/09/28 04:35:13;;;;;;;12.82;7.15;;;;;;;;;;5013823;28;20057;-75
2023/09/28 04:37:38;;;;;;;18.65;7.95;;;;;;;;;;5012525;28;20025;-75
2023/09/28 04:40:05;;;;;;;19.35;7.65;;;;;;;;;;5014100;28;20030;-77
2023/09/28 04:42:30;;;;;;;16.15;7.10;;;;;;;;;;5014361;28;20026;-77
2023/09/28 04:44:55;;;;;;;13.10;7.40;;;;;;;;;;5012144;28;20076;-78
2023/09/28 04:47:20;;;;;;;14.82;6.85;;;;;;;;;;5013270;28;20547;-76
2023/09/28 04:49:46;;;;;;;14.30;7.40;;;;;;;;;;5013360;28;20022;-76
2023/09/28 04:52:13;;;;;;;15.30;6.97;;;;;;;;;;5013287;28;20030;-76
2023/09/28 04:54:39;;;;;;;14.52;7.47;;;;;;;;;;5013317;28;20033;-76
2023/09/28 04:57:04;;;;;;;14.57;7.03;;;;;;;;;;5013224;28;20029;-76
2023/09/28 04:59:30;;;;;;;11.05;6.55;;;;;;;;;;5013542;28;20022;-77
2023/09/28 05:01:57;;;;;;;14.32;6.53;;;;;;;;;;5015071;28;20164;-78
2023/09/28 05:04:22;;;;;;;15.93;6.15;;;;;;;;;;5017141;28;20041;-78
2023/09/28 05:06:47;;;;;;;11.98;6.65;;;;;;;;;;5017090;28;20022;-77
2023/09/28 05:09:13;;;;;;;14.20;6.50;;;;;;;;;;5016409;28;20117;-77
2023/09/28 05:11:39;;;;;;;13.15;6.60;;;;;;;;;;5018806;28;20270;-78
2023/09/28 05:14:04;;;;;;;12.77;6.88;;;;;;;;;;5020196;28;20405;-77
2023/09/28 05:16:29;;;;;;;10.90;6.43;;;;;;;;;;5017373;28;20022;-78
2023/09/28 05:18:55;;;;;;;12.77;6.27;;;;;;;;;;5016308;28;20021;-77
2023/09/28 05:21:21;;;;;;;14.63;6.43;;;;;;;;;;5017111;28;20263;-76
2023/09/28 05:23:46;;;;;;;13.18;6.35;;;;;;;;;;5014855;28;20029;-76
2023/09/28 05:26:11;;;;;;;12.82;6.22;;;;;;;;;;5016411;28;20128;-75
2023/09/28 05:28:36;;;;;;;14.15;6.45;;;;;;;;;;5016517;28;20040;-75
2023/09/28 05:31:03;;;;;;;10.37;6.37;;;;;;;;;;5016686;28;20025;-75
2023/09/28 05:33:28;;;;;;;13.13;6.78;;;;;;;;;;5015211;28;20260;-75
2023/09/28 05:35:54;;;;;;;12.68;6.63;;;;;;;;;;5016568;28;20028;-75
2023/09/28 05:38:19;;;;;;;10.50;6.07;;;;;;;;;;5015315;28;20476;-75
2023/09/28 05:40:45;;;;;;;10.68;6.65;;;;;;;;;;5018644;28;20026;-79
2023/09/28 05:43:11;;;;;;;11.82;6.50;;;;;;;;;;5017689;28;20025;-78
2023/09/28 05:45:36;;;;;;;13.70;5.93;;;;;;;;;;5016704;28;20025;-75
2023/09/28 05:48:01;;;;;;;13.82;5.55;;;;;;;;;;5016270;28;20033;-75
2023/09/28 05:50:27;;;;;;;11.70;6.55;;;;;;;;;;5014776;28;20033;-75
2023/09/28 05:52:55;;;;;;;10.77;6.13;;;;;;;;;;5016518;28;20507;-76
2023/09/28 05:55:22;;;;;;;11.88;5.93;;;;;;;;;;5016318;28;20068;-74
2023/09/28 05:57:47;;;;;;;11.23;5.95;;;;;;;;;;5014938;28;20116;-74
2023/09/28 06:00:13;;;;;;;10.85;5.50;;;;;;;;;;5015973;28;20124;-74
2023/09/28 06:02:38;;;;;;;15.25;6.78;;;;;;;;;;5016123;28;20045;-75
2023/09/28 06:05:04;;;;;;;13.52;5.65;;;;;;;;;;5015202;28;20026;-75
2023/09/28 06:07:30;;;;;;;14.75;5.82;;;;;;;;;;5015415;28;20068;-74
2023/09/28 06:09:55;;;;;;;17.02;6.10;;;;;;;;;;5015117;28;20034;-75
2023/09/28 06:12:21;;;;;;;13.13;6.40;;;;;;;;;;5015509;28;20168;-72
2023/09/28 06:14:46;;;;;;;15.60;6.63;;;;;;;;;;5016053;28;20068;-72
2023/09/28 06:17:11;;;;;;;21.65;6.20;;;;;;;;;;5015982;28;20118;-72
2023/09/28 06:19:37;;;;;;;15.65;5.95;;;;;;;;;;5015557;28;20025;-72
2023/09/28 06:22:05;;;;;;;12.27;5.80;;;;;;;;;;5014411;28;20401;-72
2023/09/28 06:24:31;;;;;;;18.73;6.55;;;;;;;;;;5015926;28;20029;-72
2023/09/28 06:26:56;;;;;;;15.57;6.40;;;;;;;;;;5015721;28;20030;-73
2023/09/28 06:29:21;;;;;;;12.60;6.40;;;;;;;;;;5014088;28;20053;-73
2023/09/28 06:31:46;;;;;;;16.05;6.30;;;;;;;;;;5015634;28;20037;-73
2023/09/28 06:34:12;;;;;;;13.55;5.93;;;;;;;;;;5014024;28;20026;-73
2023/09/28 06:36:37;;;;;;;13.35;6.30;;;;;;;;;;5015451;28;20026;-73
2023/09/28 06:39:04;;;;;;;13.63;6.30;;;;;;;;;;5015215;28;20029;-73
2023/09/28 06:41:30;;;;;;;10.45;5.95;;;;;;;;;;5014146;28;20120;-73
2023/09/28 06:43:55;;;;;;;9.68;6.35;;;;;;;;;;5014172;28;20167;-72
2023/09/28 06:46:21;;;;;;;13.43;6.45;;;;;;;;;;5015587;28;20105;-73
2023/09/28 06:48:46;;;;;;;14.88;5.78;;;;;;;;;;5015254;28;20026;-72
2023/09/28 06:51:12;;;;;;;11.98;5.90;;;;;;;;;;5015111;28;20032;-73
2023/09/28 06:53:39;;;;;;;9.70;5.55;;;;;;;;;;5015527;28;20484;-73
2023/09/28 06:56:04;;;;;;;13.55;6.50;;;;;;;;;;5015911;28;20103;-74
2023/09/28 06:58:30;;;;;;;9.63;5.28;;;;;;;;;;5015284;28;20065;-75
2023/09/28 07:00:56;;;;;;;23.13;6.00;;;;;;;;;;5016225;28;20022;-77
2023/09/28 07:03:22;;;;;;;13.07;5.55;;;;;;;;;;5013824;28;20032;-78
2023/09/28 07:05:47;;;;;;;10.75;5.75;;;;;;;;;;5016418;28;20101;-75
2023/09/28 07:08:12;;;;;;;13.48;5.40;;;;;;;;;;5014769;28;20477;-75
2023/09/28 07:10:38;;;;;;;6.97;5.25;;;;;;;;;;5014408;28;20045;-76
2023/09/28 07:13:05;;;;;;;11.38;4.85;;;;;;;;;;5014704;28;20054;-74
2023/09/28 07:15:34;;;;;;;13.02;5.10;;;;;;;;;;5014232;28;20021;-74
2023/09/28 07:18:00;;;;;;;11.18;4.53;;;;;;;;;;5014059;28;20104;-75
2023/09/28 07:20:26;;;;;;;14.35;5.07;;;;;;;;;;5014285;28;20096;-74
2023/09/28 07:22:51;;;;;;;12.00;5.35;;;;;;;;;;5015635;28;20030;-75
2023/09/28 07:25:17;;;;;;;10.32;4.55;;;;;;;;;;5014927;28;20029;-74
2023/09/28 07:27:44;;;;;;;14.23;4.18;;;;;;;;;;5015179;28;20030;-74
2023/09/28 07:30:11;;;;;;;11.55;4.32;;;;;;;;;;5014141;28;20033;-75
2023/09/28 07:32:37;;;;;;;7.85;4.60;;;;;;;;;;5014178;28;20456;-74
2023/09/28 07:35:03;;;;;;;8.40;4.40;;;;;;;;;;5015051;28;20053;-74
2023/09/28 07:37:28;;;;;;;7.45;4.13;;;;;;;;;;5013839;28;20041;-74
2023/09/28 07:39:54;;;;;;;9.93;4.05;;;;;;;;;;5014642;28;20022;-74
2023/09/28 07:42:19;;;;;;;10.63;3.78;;;;;;;;;;5015177;28;20032;-74
2023/09/28 07:44:47;;;;;;;15.48;4.47;;;;;;;;;;5013699;28;20437;-75
2023/09/28 07:47:13;;;;;;;7.30;4.03;;;;;;;;;;5014468;28;20087;-74
2023/09/28 07:49:39;;;;;;;6.20;4.25;;;;;;;;;;5013648;28;20032;-75
2023/09/28 07:52:08;;;;;;;5.22;3.72;;;;;;;;;;5014097;28;20033;-74
2023/09/28 07:54:33;;;;;;;17.48;3.80;;;;;;;;;;5012840;28;20025;-74
2023/09/28 07:56:58;;;;;;;11.05;4.38;;;;;;;;;;5014682;28;20358;-74
2023/09/28 07:59:24;;;;;;;7.63;3.50;;;;;;;;;;5014506;28;20366;-74
2023/09/28 08:01:49;;;;;;;13.95;3.70;;;;;;;;;;5014811;28;20026;-74
2023/09/28 08:04:15;;;;;;;10.00;3.90;;;;;;;;;;5014419;28;20103;-75
2023/09/28 08:06:42;;;;;;;11.23;3.83;;;;;;;;;;5014624;28;20496;-74
2023/09/28 08:09:13;;;;;;;10.23;3.80;;;;;;;;;;5014568;28;20397;-74
2023/09/28 08:11:38;;;;;;;7.60;3.33;;;;;;;;;;5014851;28;20029;-77
2023/09/28 08:14:05;;;;;;;11.13;4.28;;;;;;;;;;5018022;28;20030;-85
2023/09/28 08:16:30;;;;;;;12.07;4.40;;;;;;;;;;5016173;28;20121;-76
2023/09/28 08:18:55;;;;;;;8.60;4.25;;;;;;;;;;5014375;28;20065;-77
2023/09/28 08:21:24;;;;;;;6.13;3.75;;;;;;;;;;5014084;28;20436;-77
2023/09/28 08:23:50;;;;;;;10.80;4.28;;;;;;;;;;5011346;28;20033;-77
2023/09/28 08:26:15;;;;;;;14.50;4.60;;;;;;;;;;5014885;28;20026;-73
2023/09/28 08:28:40;;;;;;;9.65;3.80;;;;;;;;;;5013440;28;20038;-73
2023/09/28 08:31:06;;;;;;;10.25;3.92;;;;;;;;;;5013624;28;20062;-73
2023/09/28 08:33:32;;;;;;;5.50;3.78;;;;;;;;;;5013679;28;20026;-73
2023/09/28 08:35:57;;;;;;;9.55;4.22;;;;;;;;;;5013515;28;20024;-73
2023/09/28 08:38:22;;;;;;;11.80;3.83;;;;;;;;;;5013412;28;20066;-73
2023/09/28 08:40:49;;;;;;;8.52;4.38;;;;;;;;;;5014177;28;20025;-73
2023/09/28 08:43:19;;;;;;;8.85;3.55;;;;;;;;;;5013909;28;20109;-73
2023/09/28 08:45:47;;;;;;;5.43;3.83;;;;;;;;;;5014150;28;20129;-75
2023/09/28 08:48:17;;;;;;;12.40;4.35;;;;;;;;;;5013363;28;20471;-74
2023/09/28 08:50:45;;;;;;;7.93;3.70;;;;;;;;;;5012023;28;20036;-74
2023/09/28 08:53:10;;;;;;;9.68;3.50;;;;;;;;;;5012683;28;20482;-73
2023/09/28 08:55:39;;;;;;;9.07;4.22;;;;;;;;;;5014885;28;20117;-74
2023/09/28 08:58:06;;;;;;;9.02;4.13;;;;;;;;;;5013120;28;20026;-76
2023/09/28 09:00:31;;;;;;;9.15;4.03;;;;;;;;;;5013460;28;20067;-77
2023/09/28 09:02:58;;;;;;;12.57;3.85;;;;;;;;;;5013100;28;20109;-77
2023/09/28 09:05:29;;;;;;;8.55;3.88;;;;;;;;;;5014394;28;20030;-77
2023/09/28 09:07:55;;;;;;;15.07;4.53;;;;;;;;;;5012645;28;20026;-77
2023/09/28 09:10:20;;;;;;;13.25;4.78;;;;;;;;;;5013454;28;20160;-77
2023/09/28 09:12:45;;;;;;;7.50;4.13;;;;;;;;;;5013104;28;20461;-77
2023/09/28 09:15:13;;;;;;;14.50;3.72;;;;;;;;;;5013702;28;20030;-77
2023/09/28 09:17:38;;;;;;;7.43;4.50;;;;;;;;;;5014140;28;20583;-77
2023/09/28 09:20:08;;;;;;;7.30;4.10;;;;;;;;;;5012855;28;20137;-77
2023/09/28 09:22:34;;;;;;;6.63;4.03;;;;;;;;;;5011871;28;20489;-79
2023/09/28 09:25:00;;;;;;;6.72;4.45;;;;;;;;;;5016246;28;20061;-78
2023/09/28 09:27:27;;;;;;;11.13;4.90;;;;;;;;;;5016560;28;20029;-79
2023/09/28 09:29:56;;;;;;;15.80;5.07;;;;;;;;;;5013016;28;20036;-80
2023/09/28 09:32:22;;;;;;;16.60;4.70;;;;;;;;;;5011599;28;20021;-76
2023/09/28 09:34:47;;;;;;;15.73;4.00;;;;;;;;;;5011828;28;20068;-76
2023/09/28 09:37:13;;;;;;;8.20;4.18;;;;;;;;;;5011897;28;20014;-77
2023/09/28 09:39:39;;;;;;;8.25;4.15;;;;;;;;;;5013650;28;20049;-76
2023/09/28 09:42:04;;;;;;;8.55;4.05;;;;;;;;;;5014183;28;20018;-76
2023/09/28 09:44:29;;;;;;;7.18;4.55;;;;;;;;;;5014741;28;20116;-76
2023/09/28 09:46:55;;;;;;;8.33;4.27;;;;;;;;;;5012113;28;20109;-76
2023/09/28 09:49:25;;;;;;;9.27;4.07;;;;;;;;;;5012656;28;20251;-75
2023/09/28 09:51:51;;;;;;;8.98;4.38;;;;;;;;;;5013379;28;20018;-75
2023/09/28 09:54:18;;;;;;;12.30;4.35;;;;;;;;;;5011495;28;20018;-75
2023/09/28 09:56:51;;;;;;;6.68;4.43;;;;;;;;;;5015788;28;20064;-75
2023/09/28 09:59:18;;;;;;;7.55;4.32;;;;;;;;;;5016425;28;20406;-75
2023/09/28 10:01:47;;;;;;;11.02;4.40;;;;;;;;;;5016112;28;20026;-76
2023/09/28 10:04:18;;;;;;;7.00;3.78;;;;;;;;;;5016325;28;20029;-75
2023/09/28 10:06:46;;;;;;;7.68;3.70;;;;;;;;;;5016027;28;20543;-76
2023/09/28 10:09:13;;;;;;;9.77;4.20;;;;;;;;;;5016039;28;20451;-76
2023/09/28 10:11:39;;;;;;;9.13;4.35;;;;;;;;;;5014736;28;20112;-75
2023/09/28 10:14:05;;;;;;;7.47;4.32;;;;;;;;;;5015982;28;20120;-75
2023/09/28 10:16:34;;;;;;;8.02;4.13;;;;;;;;;;5015895;28;20538;-76
2023/09/28 10:19:04;;;;;;;8.90;4.22;;;;;;;;;;5015725;28;20481;-75
2023/09/28 10:21:34;;;;;;;8.48;4.10;;;;;;;;;;5015608;28;20034;-76
2023/09/28 10:24:07;;;;;;;6.03;4.18;;;;;;;;;;5016392;28;20036;-76
2023/09/28 10:26:33;;;;;;;9.77;3.85;;;;;;;;;;5015111;28;20112;-75
2023/09/28 10:29:09;;;;;;;7.43;4.22;;;;;;;;;;5014028;28;20128;-75
2023/09/28 10:31:40;;;;;;;11.45;4.03;;;;;;;;;;5015073;28;20034;-75
2023/09/28 10:34:07;;;;;;;8.85;3.92;;;;;;;;;;5014243;28;20484;-75
2023/09/28 10:36:34;;;;;;;10.05;4.10;;;;;;;;;;5015553;28;20030;-75
2023/09/28 10:39:07;;;;;;;8.70;3.78;;;;;;;;;;5015029;28;20026;-74
2023/09/28 10:41:32;;;;;;;6.85;3.75;;;;;;;;;;5015572;28;20024;-72
2023/09/28 10:43:57;;;;;;;8.75;3.78;;;;;;;;;;5015473;28;20104;-74
2023/09/28 10:46:23;;;;;;;6.63;3.73;;;;;;;;;;5014084;28;20514;-73
2023/09/28 10:48:51;;;;;;;5.63;3.35;;;;;;;;;;5015691;28;20334;-73
2023/09/28 10:51:18;;;;;;;10.52;3.97;;;;;;;;;;5015776;28;20025;-73
2023/09/28 10:53:44;;;;;;;9.15;3.70;;;;;;;;;;5015454;28;20026;-73
2023/09/28 10:56:10;;;;;;;10.38;4.43;;;;;;;;;;5015816;28;20092;-73
2023/09/28 10:58:37;;;;;;;20.48;7.07;;;;;;;;;;5015789;28;20107;-71
2023/09/28 11:01:06;;;;;;;14.75;7.60;;;;;;;;;;5015443;28;20089;-73
2023/09/28 11:03:32;;;;;;;11.77;3.72;;;;;;;;;;5015348;28;20022;-73
2023/09/28 11:05:59;;;;;;;6.50;3.90;;;;;;;;;;5014125;28;20053;-73
2023/09/28 11:08:27;;;;;;;11.20;4.72;;;;;;;;;;5015226;28;20040;-73
2023/09/28 11:10:55;;;;;;;8.02;3.90;;;;;;;;;;5015332;28;20045;-73
2023/09/28 11:13:21;;;;;;;10.57;4.18;;;;;;;;;;5015186;28;20101;-73
2023/09/28 11:15:46;;;;;;;12.52;6.05;;;;;;;;;;5015250;28;20053;-73
2023/09/28 11:18:12;;;;;;;12.32;5.10;;;;;;;;;;5015664;28;20388;-73
2023/09/28 11:20:38;;;;;;;10.63;4.82;;;;;;;;;;5014484;28;20540;-73
2023/09/28 11:23:04;;;;;;;7.20;3.45;;;;;;;;;;5013341;28;20117;-73
2023/09/28 11:25:30;;;;;;;7.72;3.47;;;;;;;;;;5012464;28;20076;-73
2023/09/28 11:27:55;;;;;;;11.20;3.67;;;;;;;;;;5012671;28;20061;-73
2023/09/28 11:30:20;;;;;;;7.63;3.67;;;;;;;;;;5013921;28;20058;-74
2023/09/28 11:32:48;;;;;;;13.00;3.70;;;;;;;;;;5014827;28;20089;-73
2023/09/28 11:35:15;;;;;;;10.02;3.95;;;;;;;;;;5014420;28;20026;-72
2023/09/28 11:37:41;;;;;;;13.10;4.25;;;;;;;;;;5012345;28;20041;-72
2023/09/28 11:40:07;;;;;;;5.15;3.65;;;;;;;;;;5014067;28;20523;-73
2023/09/28 11:42:32;;;;;;;12.63;3.97;;;;;;;;;;5015903;28;20022;-72
2023/09/28 11:44:58;;;;;;;9.30;4.35;;;;;;;;;;5015360;28;20057;-72
2023/09/28 11:47:23;;;;;;;10.70;3.47;;;;;;;;;;5015656;28;20040;-72
2023/09/28 11:49:48;;;;;;;9.50;3.75;;;;;;;;;;5015396;28;20018;-72
2023/09/28 11:52:14;;;;;;;11.63;3.53;;;;;;;;;;5015525;28;20084;-72
2023/09/28 11:54:40;;;;;;;9.63;3.97;;;;;;;;;;5015573;28;20385;-72
2023/09/28 11:57:07;;;;;;;5.85;3.40;;;;;;;;;;5014140;28;20417;-73
2023/09/28 11:59:33;;;;;;;7.93;3.20;;;;;;;;;;5015344;28;20026;-73
2023/09/28 12:01:58;;;;;;;10.25;3.33;;;;;;;;;;5013914;28;20036;-73
2023/09/28 12:04:24;;;;;;;9.73;3.38;;;;;;;;;;5015498;28;20059;-73
2023/09/28 12:06:49;;;;;;;13.30;3.88;;;;;;;;;;5015347;28;20022;-73
2023/09/28 12:09:18;;;;;;;7.68;3.83;;;;;;;;;;5015445;28;20034;-73
2023/09/28 12:11:45;;;;;;;5.85;3.28;;;;;;;;;;5014071;28;20030;-72
2023/09/28 12:14:10;;;;;;;8.68;3.70;;;;;;;;;;5015409;28;20064;-73
2023/09/28 12:16:36;;;;;;;5.88;3.72;;;;;;;;;;5015644;28;20025;-73
2023/09/28 12:19:01;;;;;;;10.98;3.40;;;;;;;;;;5014461;28;20387;-73
2023/09/28 12:21:27;;;;;;;5.18;3.70;;;;;;;;;;5013923;28;20018;-73
2023/09/28 12:23:52;;;;;;;8.70;3.88;;;;;;;;;;5014123;28;20024;-73
2023/09/28 12:26:18;;;;;;;11.05;3.67;;;;;;;;;;5015073;28;20022;-73
2023/09/28 12:28:44;;;;;;;6.80;3.15;;;;;;;;;;5013470;28;20160;-73
2023/09/28 12:31:10;;;;;;;6.53;3.85;;;;;;;;;;5014792;28;20091;-72
2023/09/28 12:33:39;;;;;;;4.55;3.17;;;;;;;;;;5015112;28;20171;-73
2023/09/28 12:36:09;;;;;;;6.53;3.42;;;;;;;;;;5014758;28;20109;-73
2023/09/28 12:38:34;;;;;;;11.13;3.20;;;;;;;;;;5014184;28;20029;-73
2023/09/28 12:41:00;;;;;;;8.93;3.33;;;;;;;;;;5015038;28;20030;-73
2023/09/28 12:43:26;;;;;;;7.15;3.60;;;;;;;;;;5014914;28;20491;-73
2023/09/28 12:45:51;;;;;;;5.70;3.40;;;;;;;;;;5014475;28;20021;-73
2023/09/28 12:48:19;;;;;;;9.32;3.50;;;;;;;;;;5014038;28;20076;-73
2023/09/28 12:50:45;;;;;;;5.28;3.15;;;;;;;;;;5012969;28;20050;-73
2023/09/28 12:53:10;;;;;;;8.20;3.47;;;;;;;;;;5014160;28;20029;-71
2023/09/28 12:55:36;;;;;;;5.88;2.88;;;;;;;;;;5014263;28;20049;-73
2023/09/28 12:58:02;;;;;;;11.27;3.50;;;;;;;;;;5012951;28;20021;-73
2023/09/28 13:00:29;;;;;;;4.40;2.60;;;;;;;;;;5014171;28;20026;-73
2023/09/28 13:02:54;;;;;;;6.32;3.60;;;;;;;;;;5014647;28;20511;-73
2023/09/28 13:05:19;;;;;;;17.33;3.60;;;;;;;;;;5013753;28;20065;-73
2023/09/28 13:07:45;;;;;;;6.95;3.70;;;;;;;;;;5014313;28;20381;-73
2023/09/28 13:10:16;;;;;;;5.85;3.35;;;;;;;;;;5012538;28;20115;-72
2023/09/28 13:12:43;;;;;;;7.53;3.30;;;;;;;;;;5014989;28;20429;-72
2023/09/28 13:15:09;;;;;;;4.90;3.15;;;;;;;;;;5012656;28;20040;-71
2023/09/28 13:17:35;;;;;;;6.82;3.17;;;;;;;;;;5014123;28;20030;-72
2023/09/28 13:20:00;;;;;;;9.80;3.30;;;;;;;;;;5013778;28;20572;-72
2023/09/28 13:22:25;;;;;;;8.10;3.38;;;;;;;;;;5012653;28;20038;-72
2023/09/28 13:24:51;;;;;;;10.10;3.38;;;;;;;;;;5014115;28;20033;-72
2023/09/28 13:27:18;;;;;;;7.65;3.25;;;;;;;;;;5012663;28;20030;-72
2023/09/28 13:29:45;;;;;;;7.70;3.13;;;;;;;;;;5013647;28;20068;-72
2023/09/28 13:32:13;;;;;;;5.43;3.17;;;;;;;;;;5017342;28;20083;-73
2023/09/28 13:34:40;;;;;;;6.13;3.33;;;;;;;;;;5017779;28;20055;-73
2023/09/28 13:37:05;;;;;;;5.93;3.50;;;;;;;;;;5017399;28;20025;-72
2023/09/28 13:39:33;;;;;;;5.05;3.10;;;;;;;;;;4999770;28;20022;-76
2023/09/28 13:42:06;;;;;;;5.35;3.22;;;;;;;;;;5017418;28;20026;-72
2023/09/28 13:44:35;;;;;;;10.85;3.50;;;;;;;;;;5017732;28;20022;-73
2023/09/28 13:47:02;;;;;;;5.63;3.70;;;;;;;;;;5017918;28;20105;-73
2023/09/28 13:49:29;;;;;;;9.48;3.33;;;;;;;;;;5016605;28;20394;-77
2023/09/28 13:51:59;;;;;;;7.53;3.50;;;;;;;;;;5021242;28;20033;-76
2023/09/28 13:54:29;;;;;;;12.98;3.70;;;;;;;;;;5003153;28;20022;-76
2023/09/28 13:56:58;;;;;;;8.65;3.13;;;;;;;;;;5020196;28;20029;-77
2023/09/28 13:59:25;;;;;;;9.27;3.47;;;;;;;;;;5020506;28;20460;-77
2023/09/28 14:01:51;;;;;;;7.13;3.38;;;;;;;;;;5018472;28;20026;-77
2023/09/28 14:04:17;;;;;;;6.63;2.97;;;;;;;;;;5019998;28;20053;-75
2023/09/28 14:06:45;;;;;;;7.60;3.50;;;;;;;;;;5019605;28;20083;-77
2023/09/28 14:09:11;;;;;;;7.85;3.70;;;;;;;;;;5019428;28;20026;-76
2023/09/28 14:11:43;;;;;;;4.82;3.30;;;;;;;;;;5018659;28;20037;-77
2023/09/28 14:14:10;;;;;;;11.18;3.55;;;;;;;;;;5018989;28;20097;-78
2023/09/28 14:16:39;;;;;;;9.25;3.25;;;;;;;;;;5016286;28;20021;-75
2023/09/28 14:19:06;;;;;;;12.75;4.00;;;;;;;;;;5015756;28;20044;-75
2023/09/28 14:21:32;;;;;;;7.57;2.90;;;;;;;;;;5015699;28;20022;-75
2023/09/28 14:23:59;;;;;;;7.10;3.67;;;;;;;;;;5015729;28;20084;-75
2023/09/28 14:26:25;;;;;;;11.85;3.80;;;;;;;;;;5015296;28;20068;-74
2023/09/28 14:28:50;;;;;;;10.40;3.15;;;;;;;;;;5014753;28;20066;-74
2023/09/28 14:31:17;;;;;;;4.90;3.53;;;;;;;;;;5015530;28;20022;-74
2023/09/28 14:33:46;;;;;;;8.55;3.03;;;;;;;;;;5018264;28;20036;-80